createdAt,value
2018-07-26T00:00:23.578Z,2.00
2018-07-26T00:02:52.231Z,2.00
2018-07-26T00:05:20.846Z,2.00
2018-07-26T00:07:49.599Z,1.63
2018-07-26T00:10:18.078Z,1.90
2018-07-26T00:12:46.621Z,2.00
2018-07-26T00:15:15.063Z,2.03
2018-07-26T00:17:43.532Z,1.90
2018-07-26T00:20:12.035Z,2.00
2018-07-26T00:22:40.688Z,2.00
2018-07-26T00:25:09.312Z,1.70
2018-07-26T00:27:37.988Z,1.90
2018-07-26T00:30:06.610Z,1.50
2018-07-26T00:32:35.273Z,1.80
2018-07-26T00:35:03.718Z,1.73
2018-07-26T00:37:32.188Z,1.70
2018-07-26T00:40:00.715Z,1.93
2018-07-26T00:42:29.306Z,1.87
2018-07-26T00:44:57.885Z,1.63
2018-07-26T00:47:26.407Z,1.80
2018-07-26T00:49:54.907Z,1.93
2018-07-26T00:52:23.425Z,1.80
2018-07-26T00:54:51.844Z,1.80
2018-07-26T00:57:20.682Z,1.43
2018-07-26T00:59:49.568Z,1.60
2018-07-26T01:02:18.086Z,1.50
2018-07-26T01:04:46.613Z,1.93
2018-07-26T01:07:21.691Z,1.80
2018-07-26T01:09:50.116Z,1.80
2018-07-26T01:12:18.285Z,1.80
2018-07-26T01:14:46.799Z,1.70
2018-07-26T01:17:15.308Z,1.70
2018-07-26T01:19:43.854Z,1.80
2018-07-26T01:22:12.392Z,1.70
2018-07-26T01:24:40.985Z,1.50
2018-07-26T01:27:09.870Z,1.73
2018-07-26T01:29:38.651Z,1.67
2018-07-26T01:32:07.207Z,1.90
2018-07-26T01:34:35.724Z,1.83
2018-07-26T01:37:04.233Z,1.70
2018-07-26T01:39:32.840Z,1.70
2018-07-26T01:42:01.351Z,1.70
2018-07-26T01:44:29.828Z,1.70
2018-07-26T01:46:58.236Z,1.50
2018-07-26T01:49:26.977Z,1.80
2018-07-26T01:51:55.545Z,1.80
2018-07-26T01:54:24.039Z,1.50
2018-07-26T01:56:52.808Z,1.57
2018-07-26T01:59:21.192Z,1.67
2018-07-26T02:01:49.844Z,1.90
2018-07-26T02:04:18.276Z,1.60
2018-07-26T02:06:46.738Z,1.53
2018-07-26T02:09:15.242Z,1.97
2018-07-26T02:11:43.772Z,1.50
2018-07-26T02:14:17.729Z,1.50
2018-07-26T02:16:46.163Z,1.87
2018-07-26T02:19:14.811Z,1.77
2018-07-26T02:21:43.273Z,1.60
2018-07-26T02:24:11.965Z,1.47
2018-07-26T02:26:40.820Z,1.70
2018-07-26T02:29:09.293Z,1.80
2018-07-26T02:31:37.850Z,1.80
2018-07-26T02:34:06.496Z,1.60
2018-07-26T02:36:35.294Z,1.40
2018-07-26T02:39:05.627Z,1.60
2018-07-26T02:41:34.257Z,1.80
2018-07-26T02:44:02.822Z,1.70
2018-07-26T02:46:31.457Z,1.63
2018-07-26T02:49:00.033Z,1.63
2018-07-26T02:51:28.836Z,1.60
2018-07-26T02:53:57.408Z,1.60
2018-07-26T02:56:25.983Z,1.77
2018-07-26T02:58:54.573Z,1.30
2018-07-26T03:01:23.188Z,1.70
2018-07-26T03:03:51.714Z,1.50
2018-07-26T03:06:20.416Z,1.77
2018-07-26T03:08:49.031Z,1.33
2018-07-26T03:11:17.627Z,1.63
2018-07-26T03:13:46.128Z,1.80
2018-07-26T03:16:14.843Z,1.47
2018-07-26T03:18:43.346Z,1.60
2018-07-26T03:21:11.798Z,1.40
2018-07-26T03:23:40.585Z,1.40
2018-07-26T03:26:09.068Z,1.63
2018-07-26T03:28:38.546Z,1.50
2018-07-26T03:31:07.725Z,1.20
2018-07-26T03:33:36.434Z,1.57
2018-07-26T03:36:04.874Z,1.70
2018-07-26T03:38:33.390Z,1.80
2018-07-26T03:41:01.873Z,1.30
2018-07-26T03:43:30.451Z,1.80
2018-07-26T03:45:59.052Z,1.50
2018-07-26T03:48:27.644Z,1.63
2018-07-26T03:50:56.128Z,1.50
2018-07-26T03:53:24.589Z,1.30
2018-07-26T03:55:53.041Z,1.63
2018-07-26T03:58:21.533Z,1.87
2018-07-26T04:00:49.964Z,1.70
2018-07-26T04:03:18.396Z,1.57
2018-07-26T04:05:46.828Z,1.27
2018-07-26T04:08:15.425Z,1.50
2018-07-26T04:10:43.878Z,1.63
2018-07-26T04:13:12.430Z,1.33
2018-07-26T04:15:40.921Z,1.30
2018-07-26T04:18:09.458Z,1.60
2018-07-26T04:20:38.158Z,1.40
2018-07-26T04:23:06.581Z,1.60
2018-07-26T04:25:35.058Z,1.73
2018-07-26T04:28:03.573Z,1.63
2018-07-26T04:30:31.968Z,1.70
2018-07-26T04:33:00.488Z,1.30
2018-07-26T04:35:28.902Z,1.47
2018-07-26T04:37:57.305Z,1.57
2018-07-26T04:40:25.789Z,1.60
2018-07-26T04:42:54.289Z,1.57
2018-07-26T04:45:22.734Z,1.33
2018-07-26T04:47:51.294Z,1.43
2018-07-26T04:50:19.688Z,1.50
2018-07-26T04:52:48.349Z,1.73
2018-07-26T04:55:16.824Z,1.53
2018-07-26T04:57:45.277Z,1.80
2018-07-26T05:00:13.729Z,1.60
2018-07-26T05:02:42.312Z,1.50
2018-07-26T05:05:10.865Z,1.60
2018-07-26T05:07:39.914Z,1.53
2018-07-26T05:10:08.388Z,1.43
2018-07-26T05:12:36.824Z,1.60
2018-07-26T05:15:06.843Z,1.47
2018-07-26T05:17:35.337Z,1.50
2018-07-26T05:20:03.890Z,1.50
2018-07-26T05:22:32.330Z,1.60
2018-07-26T05:25:01.108Z,1.60
2018-07-26T05:27:29.600Z,1.60
2018-07-26T05:29:58.009Z,1.40
2018-07-26T05:32:26.483Z,1.20
2018-07-26T05:34:54.989Z,1.53
2018-07-26T05:37:23.223Z,1.53
2018-07-26T05:39:51.740Z,1.40
2018-07-26T05:42:20.120Z,1.20
2018-07-26T05:44:48.534Z,1.37
2018-07-26T05:47:17.090Z,1.50
2018-07-26T05:49:45.576Z,1.50
2018-07-26T05:52:13.997Z,1.50
2018-07-26T05:54:42.495Z,1.30
2018-07-26T05:57:10.912Z,1.40
2018-07-26T05:59:39.680Z,1.57
2018-07-26T06:02:08.436Z,1.27
2018-07-26T06:04:37.106Z,1.20
2018-07-26T06:07:05.964Z,1.30
2018-07-26T06:09:34.657Z,1.10
2018-07-26T06:12:03.115Z,1.10
2018-07-26T06:14:31.540Z,1.47
2018-07-26T06:16:59.955Z,1.30
2018-07-26T06:19:28.426Z,1.60
2018-07-26T06:21:56.892Z,1.40
2018-07-26T06:24:25.573Z,1.20
2018-07-26T06:26:54.133Z,1.10
2018-07-26T06:29:22.681Z,1.30
2018-07-26T06:31:51.172Z,1.10
2018-07-26T06:34:19.662Z,1.40
2018-07-26T06:36:47.781Z,1.40
2018-07-26T06:39:16.200Z,1.13
2018-07-26T06:41:45.086Z,1.33
2018-07-26T06:44:14.353Z,1.30
2018-07-26T06:46:42.892Z,1.10
2018-07-26T06:49:11.393Z,1.33
2018-07-26T06:51:39.981Z,1.60
2018-07-26T06:54:08.486Z,1.20
2018-07-26T06:56:37.013Z,1.27
2018-07-26T06:59:05.800Z,1.40
2018-07-26T07:01:34.244Z,1.57
2018-07-26T07:04:02.935Z,1.30
2018-07-26T07:06:31.361Z,1.40
2018-07-26T07:08:59.905Z,1.17
2018-07-26T07:11:28.300Z,1.20
2018-07-26T07:13:56.769Z,1.10
2018-07-26T07:16:25.317Z,1.37
2018-07-26T07:18:53.845Z,1.57
2018-07-26T07:21:22.408Z,1.53
2018-07-26T07:23:51.244Z,1.60
2018-07-26T07:26:19.757Z,1.20
2018-07-26T07:28:48.201Z,1.10
2018-07-26T07:31:16.737Z,1.50
2018-07-26T07:33:45.177Z,1.67
2018-07-26T07:36:13.681Z,1.40
2018-07-26T07:38:42.541Z,1.87
2018-07-26T07:41:11.067Z,1.70
2018-07-26T07:43:40.687Z,1.27
2018-07-26T07:46:09.320Z,1.17
2018-07-26T07:48:37.981Z,1.30
2018-07-26T07:51:06.770Z,1.40
2018-07-26T07:53:35.296Z,1.50
2018-07-26T07:56:03.828Z,1.43
2018-07-26T07:58:32.425Z,1.40
2018-07-26T08:01:01.007Z,1.60
2018-07-26T08:05:54.066Z,1.73
2018-07-26T08:08:24.374Z,1.50
2018-07-26T08:10:54.408Z,1.20
2018-07-26T08:13:23.000Z,1.60
2018-07-26T08:15:53.258Z,1.20
2018-07-26T08:18:23.312Z,1.40
2018-07-26T08:20:54.868Z,1.43
2018-07-26T08:23:26.075Z,1.20
2018-07-26T08:25:54.654Z,1.20
2018-07-26T08:28:23.325Z,1.50
2018-07-26T08:30:51.967Z,1.53
2018-07-26T08:33:20.384Z,1.67
2018-07-26T08:35:48.849Z,1.10
2018-07-26T08:38:17.345Z,1.63
2018-07-26T08:40:45.992Z,1.47
2018-07-26T08:43:14.651Z,1.00
2018-07-26T08:45:43.117Z,1.40
2018-07-26T08:48:11.748Z,1.40
2018-07-26T08:50:40.473Z,1.33
2018-07-26T08:53:09.040Z,1.70
2018-07-26T08:55:37.825Z,1.20
2018-07-26T08:58:06.323Z,1.53
2018-07-26T09:00:34.952Z,1.40
2018-07-26T09:03:03.409Z,1.50
2018-07-26T09:05:31.960Z,1.77
2018-07-26T09:08:00.492Z,1.53
2018-07-26T09:10:29.024Z,1.30
2018-07-26T09:12:57.440Z,1.60
2018-07-26T09:15:25.956Z,1.33
2018-07-26T09:17:54.417Z,1.07
2018-07-26T09:20:22.927Z,1.47
2018-07-26T09:22:51.361Z,1.60
2018-07-26T09:25:19.940Z,1.33
2018-07-26T09:27:48.397Z,1.43
2018-07-26T09:30:16.954Z,1.40
2018-07-26T09:32:45.451Z,1.60
2018-07-26T09:35:13.874Z,1.50
2018-07-26T09:37:42.374Z,1.47
2018-07-26T09:40:10.957Z,1.50
2018-07-26T09:42:39.732Z,1.20
2018-07-26T09:45:08.419Z,1.60
2018-07-26T09:47:37.000Z,1.50
2018-07-26T09:50:05.524Z,1.20
2018-07-26T09:52:34.162Z,1.40
2018-07-26T09:55:03.114Z,1.30
2018-07-26T09:57:31.884Z,1.60
2018-07-26T10:00:00.362Z,1.70
2018-07-26T10:02:28.773Z,1.50
2018-07-26T10:04:57.169Z,1.60
2018-07-26T10:07:25.624Z,1.60
2018-07-26T10:09:54.241Z,1.50
2018-07-26T10:12:22.876Z,1.60
2018-07-26T10:14:51.627Z,1.37
2018-07-26T10:17:20.288Z,1.43
2018-07-26T10:19:48.915Z,1.50
2018-07-26T10:22:17.514Z,1.60
2018-07-26T10:24:45.934Z,1.67
2018-07-26T10:27:14.486Z,1.30
2018-07-26T10:29:42.942Z,1.77
2018-07-26T10:32:11.385Z,1.50
2018-07-26T10:34:40.160Z,1.63
2018-07-26T10:37:08.666Z,1.53
2018-07-26T10:39:37.111Z,1.80
2018-07-26T10:42:05.619Z,1.77
2018-07-26T10:44:34.174Z,1.43
2018-07-26T10:47:02.632Z,1.10
2018-07-26T10:49:31.089Z,1.80
2018-07-26T10:51:59.675Z,1.40
2018-07-26T10:54:28.229Z,1.60
2018-07-26T10:56:56.664Z,1.47
2018-07-26T10:59:25.113Z,1.73
2018-07-26T11:01:53.563Z,1.90
2018-07-26T11:04:22.040Z,1.73
2018-07-26T11:06:50.554Z,1.90
2018-07-26T11:09:19.008Z,2.07
2018-07-26T11:11:47.515Z,1.70
2018-07-26T11:14:16.014Z,1.80
2018-07-26T11:16:44.541Z,1.90
2018-07-26T11:19:12.997Z,1.50
2018-07-26T11:21:41.468Z,2.00
2018-07-26T11:24:10.062Z,1.40
2018-07-26T11:26:38.979Z,1.40
2018-07-26T11:29:07.397Z,1.60
2018-07-26T11:31:36.428Z,1.77
2018-07-26T11:34:05.150Z,1.77
2018-07-26T11:36:33.615Z,1.50
2018-07-26T11:39:02.175Z,1.43
2018-07-26T11:41:30.742Z,1.80
2018-07-26T11:43:59.181Z,1.57
2018-07-26T11:46:27.636Z,1.80
2018-07-26T11:48:56.243Z,1.60
2018-07-26T11:51:24.726Z,1.53
2018-07-26T11:53:53.275Z,1.57
2018-07-26T11:56:21.968Z,1.70
2018-07-26T11:58:50.529Z,1.97
2018-07-26T12:01:18.924Z,1.83
2018-07-26T12:03:47.386Z,1.47
2018-07-26T12:06:15.862Z,1.60
2018-07-26T12:08:44.572Z,1.50
2018-07-26T12:11:13.071Z,2.00
2018-07-26T12:13:41.673Z,1.70
2018-07-26T12:16:10.204Z,1.80
2018-07-26T12:18:38.915Z,1.87
2018-07-26T12:21:07.552Z,1.73
2018-07-26T12:23:36.037Z,1.73
2018-07-26T12:26:04.453Z,1.60
2018-07-26T12:28:32.913Z,1.87
2018-07-26T12:31:01.502Z,1.87
2018-07-26T12:33:29.989Z,1.80
2018-07-26T12:35:58.520Z,1.70
2018-07-26T12:38:27.187Z,1.90
2018-07-26T12:40:55.761Z,1.90
2018-07-26T12:43:24.295Z,2.00
2018-07-26T12:45:55.446Z,2.20
2018-07-26T12:48:25.914Z,1.77
2018-07-26T12:50:57.358Z,2.00
2018-07-26T12:53:26.490Z,1.97
2018-07-26T12:55:55.586Z,1.70
2018-07-26T12:58:25.318Z,2.50
2018-07-26T13:00:56.100Z,2.33
2018-07-26T13:03:25.879Z,2.20
2018-07-26T13:05:55.313Z,2.47
2018-07-26T13:08:25.055Z,1.97
2018-07-26T13:10:55.625Z,2.83
2018-07-26T13:13:26.440Z,2.53
2018-07-26T13:15:56.373Z,2.20
2018-07-26T13:18:26.675Z,3.20
2018-07-26T13:20:56.069Z,1.97
2018-07-26T13:23:25.573Z,3.57
2018-07-26T13:25:56.774Z,2.30
2018-07-26T13:28:26.126Z,1.90
2018-07-26T13:30:57.310Z,2.10
2018-07-26T13:33:26.386Z,2.73
2018-07-26T13:35:56.100Z,2.60
2018-07-26T13:38:25.532Z,2.60
2018-07-26T13:40:55.059Z,2.93
2018-07-26T13:43:23.760Z,3.07
2018-07-26T13:45:52.434Z,2.30
2018-07-26T13:48:20.964Z,2.77
2018-07-26T13:50:49.406Z,2.70
2018-07-26T13:53:17.952Z,3.13
2018-07-26T13:55:46.475Z,4.37
2018-07-26T13:58:15.524Z,2.53
2018-07-26T14:00:44.104Z,2.10
2018-07-26T14:03:14.808Z,4.20
2018-07-26T14:05:43.467Z,2.63
2018-07-26T14:08:12.412Z,3.30
2018-07-26T14:10:42.263Z,4.10
2018-07-26T14:13:10.832Z,2.80
2018-07-26T14:15:39.698Z,3.63
2018-07-26T14:18:08.620Z,2.70
2018-07-26T14:20:37.178Z,3.17
2018-07-26T14:23:06.540Z,2.30
2018-07-26T14:25:35.285Z,3.17
2018-07-26T14:28:03.529Z,2.90
2018-07-26T14:30:32.134Z,3.20
2018-07-26T14:33:00.753Z,2.60
2018-07-26T14:35:34.943Z,3.67
2018-07-26T14:38:03.498Z,2.57
2018-07-26T14:40:32.258Z,2.37
2018-07-26T14:43:00.922Z,2.80
2018-07-26T14:45:29.416Z,3.83
2018-07-26T14:47:57.924Z,2.43
2018-07-26T14:50:26.408Z,3.73
2018-07-26T14:52:54.901Z,3.00
2018-07-26T14:55:23.526Z,3.47
2018-07-26T14:57:52.000Z,2.40
2018-07-26T15:00:20.644Z,2.47
2018-07-26T15:02:49.696Z,2.67
2018-07-26T15:05:18.232Z,2.30
2018-07-26T15:07:46.982Z,3.20
2018-07-26T15:10:15.660Z,2.73
2018-07-26T15:12:44.313Z,2.70
2018-07-26T15:15:12.814Z,3.10
2018-07-26T15:17:41.399Z,2.70
2018-07-26T15:20:09.957Z,3.20
2018-07-26T15:22:39.006Z,3.90
2018-07-26T15:25:07.505Z,2.57
2018-07-26T15:27:36.492Z,2.77
2018-07-26T15:30:06.870Z,2.43
2018-07-26T15:32:35.392Z,2.47
2018-07-26T15:35:03.945Z,2.83
2018-07-26T15:37:32.412Z,3.63
2018-07-26T15:40:00.816Z,2.73
2018-07-26T15:42:29.357Z,3.03
2018-07-26T15:44:57.901Z,3.10
2018-07-26T15:47:26.525Z,3.07
2018-07-26T15:49:55.109Z,2.87
2018-07-26T15:52:24.696Z,3.03
2018-07-26T15:54:53.136Z,2.60
2018-07-26T15:57:21.898Z,2.90
2018-07-26T15:59:50.393Z,2.87
2018-07-26T16:02:18.849Z,2.77
2018-07-26T16:04:47.370Z,2.77
2018-07-26T16:07:15.891Z,2.90
2018-07-26T16:09:44.374Z,2.80
2018-07-26T16:12:12.944Z,3.53
2018-07-26T16:14:41.490Z,2.60
2018-07-26T16:17:10.102Z,3.13
2018-07-26T16:19:38.858Z,3.03
2018-07-26T16:22:07.381Z,3.20
2018-07-26T16:24:36.372Z,2.50
2018-07-26T16:27:04.929Z,3.20
2018-07-26T16:29:33.592Z,2.80
2018-07-26T16:32:02.067Z,2.90
2018-07-26T16:34:30.552Z,3.13
2018-07-26T16:36:59.065Z,2.73
2018-07-26T16:39:27.525Z,3.33
2018-07-26T16:41:56.129Z,3.07
2018-07-26T16:44:24.557Z,2.87
2018-07-26T16:46:53.111Z,2.80
2018-07-26T16:49:21.586Z,2.83
2018-07-26T16:51:50.043Z,2.93
2018-07-26T16:54:18.648Z,2.97
2018-07-26T16:56:47.269Z,3.07
2018-07-26T16:59:15.984Z,2.80
2018-07-26T17:01:44.642Z,2.77
2018-07-26T17:04:13.287Z,2.73
2018-07-26T17:06:41.534Z,2.90
2018-07-26T17:09:10.863Z,3.10
2018-07-26T17:11:39.755Z,2.90
2018-07-26T17:14:08.571Z,3.17
2018-07-26T17:16:37.475Z,2.80
2018-07-26T17:19:06.220Z,2.80
2018-07-26T17:21:34.636Z,2.60
2018-07-26T17:24:03.269Z,3.40
2018-07-26T17:26:32.230Z,2.87
2018-07-26T17:29:00.926Z,2.60
2018-07-26T17:31:29.517Z,3.23
2018-07-26T17:33:58.114Z,3.30
2018-07-26T17:36:26.827Z,2.70
2018-07-26T17:38:55.329Z,2.83
2018-07-26T17:41:23.851Z,3.13
2018-07-26T17:43:52.963Z,2.60
2018-07-26T17:46:21.523Z,3.07
2018-07-26T17:48:49.994Z,3.27
2018-07-26T17:51:18.498Z,2.87
2018-07-26T17:53:46.924Z,2.80
2018-07-26T17:56:15.529Z,2.90
2018-07-26T17:58:44.167Z,3.03
2018-07-26T18:01:14.522Z,3.00
2018-07-26T18:03:44.226Z,3.17
2018-07-26T18:06:12.992Z,3.00
2018-07-26T18:08:42.400Z,2.60
2018-07-26T18:11:12.274Z,3.10
2018-07-26T18:13:43.171Z,2.80
2018-07-26T18:16:11.771Z,2.70
2018-07-26T18:18:40.911Z,2.70
2018-07-26T18:21:10.802Z,3.40
2018-07-26T18:23:40.977Z,2.83
2018-07-26T18:26:10.754Z,2.87
2018-07-26T18:28:40.278Z,2.87
2018-07-26T18:31:09.717Z,2.60
2018-07-26T18:33:40.095Z,2.73
2018-07-26T18:36:09.528Z,3.00
2018-07-26T18:38:39.375Z,2.70
2018-07-26T18:41:09.129Z,2.63
2018-07-26T18:43:39.562Z,2.70
2018-07-26T18:46:09.647Z,3.27
2018-07-26T18:48:40.202Z,2.93
2018-07-26T18:51:08.717Z,2.83
2018-07-26T18:53:38.075Z,3.03
2018-07-26T18:56:06.579Z,3.07
2018-07-26T18:58:35.106Z,2.93
2018-07-26T19:01:03.629Z,3.90
2018-07-26T19:03:32.135Z,3.23
2018-07-26T19:06:00.613Z,2.50
2018-07-26T19:08:29.082Z,3.10
2018-07-26T19:10:57.872Z,2.43
2018-07-26T19:13:26.428Z,2.57
2018-07-26T19:15:56.681Z,2.73
2018-07-26T19:18:25.168Z,2.43
2018-07-26T19:20:54.855Z,3.00
2018-07-26T19:23:26.538Z,3.10
2018-07-26T19:25:55.467Z,2.80
2018-07-26T19:28:24.167Z,2.17
2018-07-26T19:30:54.411Z,3.37
2018-07-26T19:33:23.052Z,2.63
2018-07-26T19:35:51.938Z,2.43
2018-07-26T19:38:20.610Z,2.90
2018-07-26T19:40:49.420Z,2.60
2018-07-26T19:43:18.698Z,2.70
2018-07-26T19:45:50.432Z,2.53
2018-07-26T19:48:20.137Z,2.50
2018-07-26T19:50:51.268Z,2.90
2018-07-26T19:53:20.766Z,2.57
2018-07-26T19:55:51.538Z,2.90
2018-07-26T19:58:21.261Z,2.60
2018-07-26T20:00:51.168Z,2.87
2018-07-26T20:03:20.809Z,3.17
2018-07-26T20:05:51.409Z,2.80
2018-07-26T20:08:19.938Z,2.80
2018-07-26T20:10:49.175Z,2.73
2018-07-26T20:13:18.071Z,3.03
2018-07-26T20:15:47.312Z,3.33
2018-07-26T20:18:16.602Z,3.23
2018-07-26T20:20:46.242Z,3.00
2018-07-26T20:23:15.904Z,2.80
2018-07-26T20:25:46.504Z,2.80
2018-07-26T20:28:17.208Z,2.57
2018-07-26T20:30:46.023Z,2.63
2018-07-26T20:33:15.808Z,2.77
2018-07-26T20:35:45.075Z,3.00
2018-07-26T20:38:14.305Z,2.67
2018-07-26T20:40:43.741Z,2.57
2018-07-26T20:43:12.860Z,2.80
2018-07-26T20:45:42.035Z,2.90
2018-07-26T20:48:11.511Z,2.70
2018-07-26T20:50:40.843Z,2.90
2018-07-26T20:53:09.966Z,3.07
2018-07-26T20:55:40.289Z,2.50
2018-07-26T20:58:09.590Z,2.87
2018-07-26T21:00:39.249Z,2.83
2018-07-26T21:03:09.314Z,2.50
2018-07-26T21:05:39.351Z,2.83
2018-07-26T21:08:08.807Z,2.67
2018-07-26T21:10:38.236Z,2.93
2018-07-26T21:13:08.238Z,2.87
2018-07-26T21:15:38.240Z,2.53
2018-07-26T21:18:08.548Z,2.50
2018-07-26T21:20:38.739Z,3.00
2018-07-26T21:23:08.114Z,2.67
2018-07-26T21:25:37.678Z,2.60
2018-07-26T21:28:07.491Z,3.37
2018-07-26T21:30:37.588Z,2.70
2018-07-26T21:33:07.091Z,3.13
2018-07-26T21:35:36.517Z,2.40
2018-07-26T21:38:06.196Z,2.50
2018-07-26T21:40:35.487Z,2.50
2018-07-26T21:43:05.154Z,2.33
2018-07-26T21:45:34.630Z,2.43
2018-07-26T21:48:04.351Z,2.67
2018-07-26T21:50:34.027Z,2.30
2018-07-26T21:53:03.421Z,2.63
2018-07-26T21:55:33.901Z,2.40
2018-07-26T21:58:03.448Z,2.77
2018-07-26T22:00:39.396Z,3.47
2018-07-26T22:03:09.119Z,2.40
2018-07-26T22:05:40.035Z,2.33
2018-07-26T22:08:08.860Z,2.60
2018-07-26T22:10:38.077Z,2.43
2018-07-26T22:13:08.028Z,3.13
2018-07-26T22:15:37.096Z,2.57
2018-07-26T22:18:06.463Z,2.20
2018-07-26T22:20:36.158Z,2.70
2018-07-26T22:23:04.854Z,2.23
2018-07-26T22:25:34.337Z,2.57
2018-07-26T22:28:03.724Z,2.53
2018-07-26T22:30:33.645Z,2.23
2018-07-26T22:33:03.580Z,2.67
2018-07-26T22:35:33.814Z,2.77
2018-07-26T22:38:02.951Z,2.63
2018-07-26T22:40:32.239Z,2.70
2018-07-26T22:43:01.815Z,2.40
2018-07-26T22:45:30.830Z,2.77
2018-07-26T22:48:00.361Z,2.60
2018-07-26T22:50:29.796Z,2.30
2018-07-26T22:52:59.240Z,2.73
2018-07-26T22:55:28.942Z,2.80
2018-07-26T22:57:58.298Z,2.60
2018-07-26T23:00:27.769Z,2.83
2018-07-26T23:02:57.294Z,2.73
2018-07-26T23:05:26.446Z,2.80
2018-07-26T23:07:55.995Z,2.03
2018-07-26T23:10:25.629Z,2.30
2018-07-26T23:12:55.068Z,2.17
2018-07-26T23:15:24.421Z,2.40
2018-07-26T23:17:54.219Z,2.17
2018-07-26T23:20:22.799Z,2.10
2018-07-26T23:22:54.897Z,2.20
2018-07-26T23:25:24.079Z,2.30
2018-07-26T23:27:52.830Z,2.00
2018-07-26T23:30:22.299Z,2.37
2018-07-26T23:32:51.529Z,2.40
2018-07-26T23:35:21.274Z,2.20
2018-07-26T23:37:51.038Z,2.17
2018-07-26T23:40:19.492Z,2.10
2018-07-26T23:42:48.074Z,1.77
2018-07-26T23:45:17.562Z,2.60
2018-07-26T23:47:47.301Z,2.57
2018-07-26T23:50:16.904Z,2.27
2018-07-26T23:52:46.637Z,2.40
2018-07-26T23:55:16.035Z,2.40
2018-07-26T23:57:45.121Z,2.43
